Airport View

Enter AWOS ICAO identifier for current METAR.

ex. KFNL

KHYW 171250Z AUTO 36010G21KT 10SM OVC017 07/04 A2996 RMK AO2 LTG DSNT E

17 Nov 2019 12:52

Frequency: 119.525

Phone: 843-397-8046

Other Area AWOS: KMYR - KCRE - KMAO - KGGE

TAF KMYR 171130Z 1712/1812 36024G33KT 6SM -RA OVC012 WS020/03052KT FM171400 36020G30KT P6SM OVC015 FM172200 35010KT P6SM OVC015 FM180800 34006KT P6SM OVC007